FBKE

Kasane Airport

Kasane, Botswana
METAR FBKE 220900Z 10007KT 060V130 9999 FEW030 25/11 Q1023
Observed Flight Rules
May-22 @ 09:00 UTC (an hour ago) Visual Flight Rules
Wind Visibility Clouds
100° at 7 knots 10,000+ meters
  • Few at 3,000' AGL
Temperatures Readings
Current 25°C / 77°F
Dewpoint 11°C / 52°F
Humidity 42%
Altimeter 30.21" Hg
Pressure 1023 hPa
Elevation 1000
METAR FBKE 220900Z 10007KT 060V130 9999 FEW030 25/11 Q1023
Observed Flight Rules
May-22 @ 09:00 UTC
(an hour ago)
VFR
Wind Visibility
100° at 7 knots 10,000+ meters
Clouds
  • Few at 3,000' AGL
Temperature Dewpoint
25°C / 77°F 11°C / 52°F
Humidity Altimeter Pressure
42% 30.21" Hg 1023 hPa